sensor_id;sensor_type;location;lat;lon;timestamp;P1;durP1;ratioP1;P2;durP2;ratioP2
21987;SDS011;11158;53.404;-1.510;2022-07-17T00:00:23;8.68;;;7.00;;
21987;SDS011;11158;53.404;-1.510;2022-07-17T00:02:49;8.43;;;6.53;;
21987;SDS011;11158;53.404;-1.510;2022-07-17T00:05:15;8.95;;;6.93;;
21987;SDS011;11158;53.404;-1.510;2022-07-17T00:07:41;9.02;;;6.72;;
21987;SDS011;11158;53.404;-1.510;2022-07-17T00:10:07;9.05;;;6.65;;
21987;SDS011;11158;53.404;-1.510;2022-07-17T00:12:33;10.13;;;7.35;;
21987;SDS011;11158;53.404;-1.510;2022-07-17T00:14:59;8.05;;;6.45;;
21987;SDS011;11158;53.404;-1.510;2022-07-17T00:17:25;9.10;;;6.88;;
21987;SDS011;11158;53.404;-1.510;2022-07-17T00:19:51;9.38;;;6.95;;
21987;SDS011;11158;53.404;-1.510;2022-07-17T00:22:17;9.98;;;6.70;;
21987;SDS011;11158;53.404;-1.510;2022-07-17T00:24:43;13.32;;;7.13;;
21987;SDS011;11158;53.404;-1.510;2022-07-17T00:27:08;8.60;;;6.93;;
21987;SDS011;11158;53.404;-1.510;2022-07-17T00:29:34;10.27;;;7.53;;
21987;SDS011;11158;53.404;-1.510;2022-07-17T00:32:01;8.00;;;6.70;;
21987;SDS011;11158;53.404;-1.510;2022-07-17T00:34:27;9.43;;;7.10;;
21987;SDS011;11158;53.404;-1.510;2022-07-17T00:36:53;10.88;;;7.03;;
21987;SDS011;11158;53.404;-1.510;2022-07-17T00:39:19;10.00;;;6.38;;
21987;SDS011;11158;53.404;-1.510;2022-07-17T00:41:44;9.82;;;7.10;;
21987;SDS011;11158;53.404;-1.510;2022-07-17T00:44:11;10.07;;;7.50;;
21987;SDS011;11158;53.404;-1.510;2022-07-17T00:46:40;8.93;;;7.25;;
21987;SDS011;11158;53.404;-1.510;2022-07-17T00:49:06;8.93;;;7.63;;
21987;SDS011;11158;53.404;-1.510;2022-07-17T00:51:33;8.70;;;7.22;;
21987;SDS011;11158;53.404;-1.510;2022-07-17T00:53:59;10.20;;;7.75;;
21987;SDS011;11158;53.404;-1.510;2022-07-17T00:56:26;9.73;;;7.28;;
21987;SDS011;11158;53.404;-1.510;2022-07-17T00:58:53;9.80;;;7.18;;
21987;SDS011;11158;53.404;-1.510;2022-07-17T01:01:22;8.68;;;6.75;;
21987;SDS011;11158;53.404;-1.510;2022-07-17T01:03:47;8.93;;;7.15;;
21987;SDS011;11158;53.404;-1.510;2022-07-17T01:06:13;7.78;;;6.85;;
21987;SDS011;11158;53.404;-1.510;2022-07-17T01:08:39;9.05;;;7.18;;
21987;SDS011;11158;53.404;-1.510;2022-07-17T01:11:05;10.07;;;6.65;;
21987;SDS011;11158;53.404;-1.510;2022-07-17T01:13:35;9.05;;;7.57;;
21987;SDS011;11158;53.404;-1.510;2022-07-17T01:16:01;10.48;;;7.35;;
21987;SDS011;11158;53.404;-1.510;2022-07-17T01:18:26;8.77;;;7.28;;
21987;SDS011;11158;53.404;-1.510;2022-07-17T01:21:05;8.13;;;6.70;;
21987;SDS011;11158;53.404;-1.510;2022-07-17T01:23:31;8.85;;;6.85;;
21987;SDS011;11158;53.404;-1.510;2022-07-17T01:25:57;9.32;;;7.75;;
21987;SDS011;11158;53.404;-1.510;2022-07-17T01:28:23;7.93;;;6.63;;
21987;SDS011;11158;53.404;-1.510;2022-07-17T01:30:49;9.13;;;7.25;;
21987;SDS011;11158;53.404;-1.510;2022-07-17T01:33:16;13.23;;;7.25;;
21987;SDS011;11158;53.404;-1.510;2022-07-17T01:35:43;8.73;;;6.80;;
21987;SDS011;11158;53.404;-1.510;2022-07-17T01:38:09;9.95;;;7.57;;
21987;SDS011;11158;53.404;-1.510;2022-07-17T01:40:35;11.23;;;7.28;;
21987;SDS011;11158;53.404;-1.510;2022-07-17T01:43:01;8.82;;;6.65;;
21987;SDS011;11158;53.404;-1.510;2022-07-17T01:45:26;9.73;;;7.50;;
21987;SDS011;11158;53.404;-1.510;2022-07-17T01:47:53;11.10;;;7.38;;
21987;SDS011;11158;53.404;-1.510;2022-07-17T01:50:19;9.55;;;7.38;;
21987;SDS011;11158;53.404;-1.510;2022-07-17T01:52:45;12.07;;;7.00;;
21987;SDS011;11158;53.404;-1.510;2022-07-17T01:55:12;11.07;;;8.23;;
21987;SDS011;11158;53.404;-1.510;2022-07-17T01:57:40;10.52;;;7.35;;
21987;SDS011;11158;53.404;-1.510;2022-07-17T02:00:08;9.70;;;7.68;;
21987;SDS011;11158;53.404;-1.510;2022-07-17T02:02:36;10.65;;;7.57;;
21987;SDS011;11158;53.404;-1.510;2022-07-17T02:05:01;10.77;;;7.25;;
21987;SDS011;11158;53.404;-1.510;2022-07-17T02:07:27;10.05;;;7.63;;
21987;SDS011;11158;53.404;-1.510;2022-07-17T02:09:53;11.75;;;7.22;;
21987;SDS011;11158;53.404;-1.510;2022-07-17T02:12:19;9.50;;;7.28;;
21987;SDS011;11158;53.404;-1.510;2022-07-17T02:14:45;9.45;;;7.82;;
21987;SDS011;11158;53.404;-1.510;2022-07-17T02:17:10;9.38;;;7.80;;
21987;SDS011;11158;53.404;-1.510;2022-07-17T02:19:36;13.80;;;7.25;;
21987;SDS011;11158;53.404;-1.510;2022-07-17T02:22:03;12.50;;;7.85;;
21987;SDS011;11158;53.404;-1.510;2022-07-17T02:24:28;13.23;;;8.63;;
21987;SDS011;11158;53.404;-1.510;2022-07-17T02:26:54;9.55;;;7.78;;
21987;SDS011;11158;53.404;-1.510;2022-07-17T02:29:20;9.90;;;7.60;;
21987;SDS011;11158;53.404;-1.510;2022-07-17T02:31:46;10.60;;;7.63;;
21987;SDS011;11158;53.404;-1.510;2022-07-17T02:34:11;9.23;;;7.57;;
21987;SDS011;11158;53.404;-1.510;2022-07-17T02:36:38;9.20;;;7.30;;
21987;SDS011;11158;53.404;-1.510;2022-07-17T02:39:04;9.07;;;7.57;;
21987;SDS011;11158;53.404;-1.510;2022-07-17T02:41:29;11.02;;;7.40;;
21987;SDS011;11158;53.404;-1.510;2022-07-17T02:43:55;10.68;;;8.45;;
21987;SDS011;11158;53.404;-1.510;2022-07-17T02:46:21;9.70;;;7.72;;
21987;SDS011;11158;53.404;-1.510;2022-07-17T02:48:47;11.88;;;7.25;;
21987;SDS011;11158;53.404;-1.510;2022-07-17T02:51:13;10.27;;;7.72;;
21987;SDS011;11158;53.404;-1.510;2022-07-17T02:53:40;10.25;;;7.68;;
21987;SDS011;11158;53.404;-1.510;2022-07-17T02:56:06;10.40;;;6.75;;
21987;SDS011;11158;53.404;-1.510;2022-07-17T02:58:32;8.77;;;7.22;;
21987;SDS011;11158;53.404;-1.510;2022-07-17T03:00:58;8.75;;;6.75;;
21987;SDS011;11158;53.404;-1.510;2022-07-17T03:03:24;9.43;;;7.40;;
21987;SDS011;11158;53.404;-1.510;2022-07-17T03:05:50;9.52;;;7.45;;
21987;SDS011;11158;53.404;-1.510;2022-07-17T03:08:15;8.68;;;6.88;;
21987;SDS011;11158;53.404;-1.510;2022-07-17T03:10:41;10.07;;;7.90;;
21987;SDS011;11158;53.404;-1.510;2022-07-17T03:13:07;9.63;;;7.25;;
21987;SDS011;11158;53.404;-1.510;2022-07-17T03:15:33;10.55;;;8.23;;
21987;SDS011;11158;53.404;-1.510;2022-07-17T03:17:59;9.82;;;8.00;;
21987;SDS011;11158;53.404;-1.510;2022-07-17T03:20:25;9.20;;;7.72;;
21987;SDS011;11158;53.404;-1.510;2022-07-17T03:22:51;10.85;;;7.95;;
21987;SDS011;11158;53.404;-1.510;2022-07-17T03:25:16;9.30;;;7.68;;
21987;SDS011;11158;53.404;-1.510;2022-07-17T03:27:42;10.45;;;7.68;;
21987;SDS011;11158;53.404;-1.510;2022-07-17T03:30:08;10.68;;;7.70;;
21987;SDS011;11158;53.404;-1.510;2022-07-17T03:32:34;13.63;;;9.07;;
21987;SDS011;11158;53.404;-1.510;2022-07-17T03:35:00;16.15;;;9.75;;
21987;SDS011;11158;53.404;-1.510;2022-07-17T03:37:27;12.65;;;8.50;;
21987;SDS011;11158;53.404;-1.510;2022-07-17T03:39:53;14.77;;;9.30;;
21987;SDS011;11158;53.404;-1.510;2022-07-17T03:42:19;11.35;;;8.48;;
21987;SDS011;11158;53.404;-1.510;2022-07-17T03:44:45;13.73;;;8.88;;
21987;SDS011;11158;53.404;-1.510;2022-07-17T03:47:10;19.52;;;9.75;;
21987;SDS011;11158;53.404;-1.510;2022-07-17T03:49:36;11.43;;;8.00;;
21987;SDS011;11158;53.404;-1.510;2022-07-17T03:52:01;11.20;;;8.18;;
21987;SDS011;11158;53.404;-1.510;2022-07-17T03:54:30;18.40;;;9.95;;
21987;SDS011;11158;53.404;-1.510;2022-07-17T03:56:56;15.48;;;8.68;;
21987;SDS011;11158;53.404;-1.510;2022-07-17T03:59:21;11.23;;;8.20;;
21987;SDS011;11158;53.404;-1.510;2022-07-17T04:01:47;9.65;;;7.97;;
21987;SDS011;11158;53.404;-1.510;2022-07-17T04:04:13;11.48;;;7.80;;
21987;SDS011;11158;53.404;-1.510;2022-07-17T04:06:42;12.02;;;7.97;;
21987;SDS011;11158;53.404;-1.510;2022-07-17T04:09:10;10.52;;;7.82;;
21987;SDS011;11158;53.404;-1.510;2022-07-17T04:11:36;13.73;;;8.70;;
21987;SDS011;11158;53.404;-1.510;2022-07-17T04:14:01;9.63;;;7.80;;
21987;SDS011;11158;53.404;-1.510;2022-07-17T04:16:27;10.93;;;8.15;;
21987;SDS011;11158;53.404;-1.510;2022-07-17T04:18:52;12.27;;;8.63;;
21987;SDS011;11158;53.404;-1.510;2022-07-17T04:21:18;10.98;;;8.40;;
21987;SDS011;11158;53.404;-1.510;2022-07-17T04:23:44;10.77;;;7.60;;
21987;SDS011;11158;53.404;-1.510;2022-07-17T04:26:10;10.23;;;7.70;;
21987;SDS011;11158;53.404;-1.510;2022-07-17T04:28:35;11.00;;;7.63;;
21987;SDS011;11158;53.404;-1.510;2022-07-17T04:31:01;10.38;;;8.02;;
21987;SDS011;11158;53.404;-1.510;2022-07-17T04:33:27;9.25;;;7.03;;
21987;SDS011;11158;53.404;-1.510;2022-07-17T04:35:53;9.18;;;7.13;;
21987;SDS011;11158;53.404;-1.510;2022-07-17T04:38:19;10.80;;;7.32;;
21987;SDS011;11158;53.404;-1.510;2022-07-17T04:40:44;8.15;;;6.80;;
21987;SDS011;11158;53.404;-1.510;2022-07-17T04:43:11;10.00;;;7.13;;
21987;SDS011;11158;53.404;-1.510;2022-07-17T04:45:37;10.82;;;7.80;;
21987;SDS011;11158;53.404;-1.510;2022-07-17T04:48:03;9.25;;;7.53;;
21987;SDS011;11158;53.404;-1.510;2022-07-17T04:50:29;8.60;;;7.15;;
21987;SDS011;11158;53.404;-1.510;2022-07-17T04:52:55;8.85;;;7.43;;
21987;SDS011;11158;53.404;-1.510;2022-07-17T04:55:22;9.50;;;7.35;;
21987;SDS011;11158;53.404;-1.510;2022-07-17T04:57:48;9.98;;;8.23;;
21987;SDS011;11158;53.404;-1.510;2022-07-17T05:00:14;9.43;;;7.63;;
21987;SDS011;11158;53.404;-1.510;2022-07-17T05:02:40;9.63;;;7.43;;
21987;SDS011;11158;53.404;-1.510;2022-07-17T05:05:06;9.55;;;7.90;;
21987;SDS011;11158;53.404;-1.510;2022-07-17T05:07:32;10.25;;;7.45;;
21987;SDS011;11158;53.404;-1.510;2022-07-17T05:09:57;9.02;;;7.50;;
21987;SDS011;11158;53.404;-1.510;2022-07-17T05:12:23;8.55;;;7.30;;
21987;SDS011;11158;53.404;-1.510;2022-07-17T05:14:49;11.07;;;7.70;;
21987;SDS011;11158;53.404;-1.510;2022-07-17T05:17:14;9.70;;;7.22;;
21987;SDS011;11158;53.404;-1.510;2022-07-17T05:19:40;8.75;;;7.30;;
21987;SDS011;11158;53.404;-1.510;2022-07-17T05:22:06;9.50;;;7.85;;
21987;SDS011;11158;53.404;-1.510;2022-07-17T05:24:31;8.48;;;6.78;;
21987;SDS011;11158;53.404;-1.510;2022-07-17T05:26:59;10.13;;;8.30;;
21987;SDS011;11158;53.404;-1.510;2022-07-17T05:29:25;9.55;;;8.00;;
21987;SDS011;11158;53.404;-1.510;2022-07-17T05:31:50;9.52;;;7.70;;
21987;SDS011;11158;53.404;-1.510;2022-07-17T05:34:16;10.30;;;7.57;;
21987;SDS011;11158;53.404;-1.510;2022-07-17T05:36:41;9.77;;;7.55;;
21987;SDS011;11158;53.404;-1.510;2022-07-17T05:39:07;11.70;;;8.15;;
21987;SDS011;11158;53.404;-1.510;2022-07-17T05:41:33;11.73;;;8.50;;
21987;SDS011;11158;53.404;-1.510;2022-07-17T05:43:59;12.07;;;7.53;;
21987;SDS011;11158;53.404;-1.510;2022-07-17T05:46:25;10.00;;;8.23;;
21987;SDS011;11158;53.404;-1.510;2022-07-17T05:48:51;9.68;;;8.00;;
21987;SDS011;11158;53.404;-1.510;2022-07-17T05:51:16;10.75;;;7.95;;
21987;SDS011;11158;53.404;-1.510;2022-07-17T05:53:42;8.75;;;7.38;;
21987;SDS011;11158;53.404;-1.510;2022-07-17T05:56:08;11.57;;;8.07;;
21987;SDS011;11158;53.404;-1.510;2022-07-17T05:58:33;10.00;;;7.47;;
21987;SDS011;11158;53.404;-1.510;2022-07-17T06:00:59;9.55;;;7.60;;
21987;SDS011;11158;53.404;-1.510;2022-07-17T06:03:24;8.55;;;7.43;;
21987;SDS011;11158;53.404;-1.510;2022-07-17T06:05:50;9.68;;;7.22;;
21987;SDS011;11158;53.404;-1.510;2022-07-17T06:08:15;8.93;;;7.57;;
21987;SDS011;11158;53.404;-1.510;2022-07-17T06:10:41;10.77;;;8.15;;
21987;SDS011;11158;53.404;-1.510;2022-07-17T06:13:07;10.38;;;8.20;;
21987;SDS011;11158;53.404;-1.510;2022-07-17T06:15:32;10.18;;;7.60;;
21987;SDS011;11158;53.404;-1.510;2022-07-17T06:18:04;10.93;;;8.43;;
21987;SDS011;11158;53.404;-1.510;2022-07-17T06:20:30;9.82;;;8.10;;
21987;SDS011;11158;53.404;-1.510;2022-07-17T06:22:56;10.30;;;8.07;;
21987;SDS011;11158;53.404;-1.510;2022-07-17T06:25:22;9.50;;;7.70;;
21987;SDS011;11158;53.404;-1.510;2022-07-17T06:27:48;11.55;;;8.35;;
21987;SDS011;11158;53.404;-1.510;2022-07-17T06:30:14;10.18;;;7.63;;
21987;SDS011;11158;53.404;-1.510;2022-07-17T06:32:40;9.93;;;7.55;;
21987;SDS011;11158;53.404;-1.510;2022-07-17T06:35:06;8.88;;;7.68;;
21987;SDS011;11158;53.404;-1.510;2022-07-17T06:37:33;8.85;;;7.70;;
21987;SDS011;11158;53.404;-1.510;2022-07-17T06:39:58;10.05;;;7.55;;
21987;SDS011;11158;53.404;-1.510;2022-07-17T06:42:24;11.30;;;7.32;;
21987;SDS011;11158;53.404;-1.510;2022-07-17T06:44:50;14.38;;;8.20;;
21987;SDS011;11158;53.404;-1.510;2022-07-17T06:47:15;9.20;;;7.78;;
21987;SDS011;11158;53.404;-1.510;2022-07-17T06:49:41;9.32;;;7.57;;
21987;SDS011;11158;53.404;-1.510;2022-07-17T06:52:07;9.90;;;7.20;;
21987;SDS011;11158;53.404;-1.510;2022-07-17T06:54:32;11.32;;;7.72;;
21987;SDS011;11158;53.404;-1.510;2022-07-17T06:56:58;10.15;;;7.50;;
21987;SDS011;11158;53.404;-1.510;2022-07-17T06:59:23;8.32;;;6.72;;
21987;SDS011;11158;53.404;-1.510;2022-07-17T07:01:49;10.00;;;7.05;;
21987;SDS011;11158;53.404;-1.510;2022-07-17T07:04:15;9.18;;;6.90;;
21987;SDS011;11158;53.404;-1.510;2022-07-17T07:06:40;9.55;;;7.38;;
21987;SDS011;11158;53.404;-1.510;2022-07-17T07:09:06;9.13;;;7.65;;
21987;SDS011;11158;53.404;-1.510;2022-07-17T07:11:32;8.73;;;7.00;;
21987;SDS011;11158;53.404;-1.510;2022-07-17T07:13:58;8.27;;;6.50;;
21987;SDS011;11158;53.404;-1.510;2022-07-17T07:16:23;7.35;;;6.57;;
21987;SDS011;11158;53.404;-1.510;2022-07-17T07:18:49;7.75;;;6.95;;
21987;SDS011;11158;53.404;-1.510;2022-07-17T07:21:15;7.85;;;6.63;;
21987;SDS011;11158;53.404;-1.510;2022-07-17T07:23:40;9.65;;;7.72;;
21987;SDS011;11158;53.404;-1.510;2022-07-17T07:26:06;9.00;;;7.40;;
21987;SDS011;11158;53.404;-1.510;2022-07-17T07:28:32;13.13;;;8.10;;
21987;SDS011;11158;53.404;-1.510;2022-07-17T07:30:59;11.20;;;8.30;;
21987;SDS011;11158;53.404;-1.510;2022-07-17T07:33:25;10.15;;;7.85;;
21987;SDS011;11158;53.404;-1.510;2022-07-17T07:35:51;8.77;;;7.22;;
21987;SDS011;11158;53.404;-1.510;2022-07-17T07:38:16;11.90;;;7.50;;
21987;SDS011;11158;53.404;-1.510;2022-07-17T07:40:42;8.43;;;7.60;;
21987;SDS011;11158;53.404;-1.510;2022-07-17T07:43:08;11.23;;;6.85;;
21987;SDS011;11158;53.404;-1.510;2022-07-17T07:45:33;8.13;;;6.72;;
21987;SDS011;11158;53.404;-1.510;2022-07-17T07:47:59;14.30;;;7.32;;
21987;SDS011;11158;53.404;-1.510;2022-07-17T07:50:25;8.88;;;6.05;;
21987;SDS011;11158;53.404;-1.510;2022-07-17T07:52:54;8.80;;;6.28;;
21987;SDS011;11158;53.404;-1.510;2022-07-17T07:55:20;10.38;;;7.07;;
21987;SDS011;11158;53.404;-1.510;2022-07-17T07:57:49;9.40;;;6.97;;
21987;SDS011;11158;53.404;-1.510;2022-07-17T08:00:25;9.00;;;7.15;;
21987;SDS011;11158;53.404;-1.510;2022-07-17T08:02:51;7.75;;;6.70;;
21987;SDS011;11158;53.404;-1.510;2022-07-17T08:05:17;9.75;;;6.68;;
21987;SDS011;11158;53.404;-1.510;2022-07-17T08:07:42;8.85;;;6.72;;
21987;SDS011;11158;53.404;-1.510;2022-07-17T08:10:08;7.63;;;6.82;;
21987;SDS011;11158;53.404;-1.510;2022-07-17T08:12:33;7.63;;;6.18;;
21987;SDS011;11158;53.404;-1.510;2022-07-17T08:14:59;9.75;;;6.47;;
21987;SDS011;11158;53.404;-1.510;2022-07-17T08:17:25;9.75;;;6.82;;
21987;SDS011;11158;53.404;-1.510;2022-07-17T08:19:50;7.85;;;6.07;;
21987;SDS011;11158;53.404;-1.510;2022-07-17T08:22:16;7.72;;;6.35;;
21987;SDS011;11158;53.404;-1.510;2022-07-17T08:24:41;8.13;;;5.82;;
21987;SDS011;11158;53.404;-1.510;2022-07-17T08:27:07;7.72;;;5.90;;
21987;SDS011;11158;53.404;-1.510;2022-07-17T08:29:33;7.20;;;5.85;;
21987;SDS011;11158;53.404;-1.510;2022-07-17T08:31:58;7.13;;;5.32;;
21987;SDS011;11158;53.404;-1.510;2022-07-17T08:34:24;14.02;;;5.40;;
21987;SDS011;11158;53.404;-1.510;2022-07-17T08:36:49;7.07;;;5.30;;
21987;SDS011;11158;53.404;-1.510;2022-07-17T08:39:16;6.93;;;4.45;;
21987;SDS011;11158;53.404;-1.510;2022-07-17T08:41:42;5.07;;;4.57;;
21987;SDS011;11158;53.404;-1.510;2022-07-17T08:44:08;7.35;;;4.45;;
21987;SDS011;11158;53.404;-1.510;2022-07-17T08:46:37;6.28;;;4.30;;
21987;SDS011;11158;53.404;-1.510;2022-07-17T08:49:04;6.22;;;5.28;;
21987;SDS011;11158;53.404;-1.510;2022-07-17T08:51:32;5.07;;;4.43;;
21987;SDS011;11158;53.404;-1.510;2022-07-17T08:53:59;4.15;;;3.65;;
21987;SDS011;11158;53.404;-1.510;2022-07-17T08:56:26;5.68;;;3.72;;
21987;SDS011;11158;53.404;-1.510;2022-07-17T08:58:52;5.25;;;4.38;;
21987;SDS011;11158;53.404;-1.510;2022-07-17T09:01:20;7.63;;;5.30;;
21987;SDS011;11158;53.404;-1.510;2022-07-17T09:03:59;6.05;;;4.75;;
21987;SDS011;11158;53.404;-1.510;2022-07-17T09:06:31;6.68;;;5.28;;
21987;SDS011;11158;53.404;-1.510;2022-07-17T09:09:08;7.50;;;4.97;;
21987;SDS011;11158;53.404;-1.510;2022-07-17T09:11:46;5.40;;;4.15;;
21987;SDS011;11158;53.404;-1.510;2022-07-17T09:14:13;4.53;;;3.88;;
21987;SDS011;11158;53.404;-1.510;2022-07-17T09:16:52;4.88;;;3.95;;
21987;SDS011;11158;53.404;-1.510;2022-07-17T09:19:24;5.93;;;3.83;;
21987;SDS011;11158;53.404;-1.510;2022-07-17T09:21:50;5.63;;;4.10;;
21987;SDS011;11158;53.404;-1.510;2022-07-17T09:24:16;7.95;;;4.55;;
21987;SDS011;11158;53.404;-1.510;2022-07-17T09:26:43;5.40;;;3.67;;
21987;SDS011;11158;53.404;-1.510;2022-07-17T09:29:10;5.45;;;3.78;;
21987;SDS011;11158;53.404;-1.510;2022-07-17T09:31:37;4.30;;;3.33;;
21987;SDS011;11158;53.404;-1.510;2022-07-17T09:34:04;5.22;;;3.58;;
21987;SDS011;11158;53.404;-1.510;2022-07-17T09:36:33;3.40;;;3.08;;
21987;SDS011;11158;53.404;-1.510;2022-07-17T09:38:59;3.90;;;3.40;;
21987;SDS011;11158;53.404;-1.510;2022-07-17T09:41:25;6.90;;;4.03;;
21987;SDS011;11158;53.404;-1.510;2022-07-17T09:43:56;3.80;;;3.27;;
21987;SDS011;11158;53.404;-1.510;2022-07-17T09:46:26;4.40;;;3.55;;
21987;SDS011;11158;53.404;-1.510;2022-07-17T09:48:54;4.85;;;3.20;;
21987;SDS011;11158;53.404;-1.510;2022-07-17T09:51:28;3.65;;;3.33;;
21987;SDS011;11158;53.404;-1.510;2022-07-17T09:53:56;4.63;;;3.80;;
21987;SDS011;11158;53.404;-1.510;2022-07-17T09:56:25;3.85;;;3.50;;
21987;SDS011;11158;53.404;-1.510;2022-07-17T09:59:02;5.90;;;3.88;;
21987;SDS011;11158;53.404;-1.510;2022-07-17T10:01:31;8.63;;;4.07;;
21987;SDS011;11158;53.404;-1.510;2022-07-17T10:03:57;4.18;;;3.78;;
21987;SDS011;11158;53.404;-1.510;2022-07-17T10:06:24;6.03;;;4.20;;
21987;SDS011;11158;53.404;-1.510;2022-07-17T10:08:53;6.03;;;3.70;;
21987;SDS011;11158;53.404;-1.510;2022-07-17T10:11:20;6.95;;;4.07;;
21987;SDS011;11158;53.404;-1.510;2022-07-17T10:13:47;5.38;;;3.85;;
21987;SDS011;11158;53.404;-1.510;2022-07-17T10:16:22;5.68;;;3.90;;
21987;SDS011;11158;53.404;-1.510;2022-07-17T10:18:49;4.57;;;4.00;;
21987;SDS011;11158;53.404;-1.510;2022-07-17T10:21:18;4.45;;;3.83;;
21987;SDS011;11158;53.404;-1.510;2022-07-17T10:26:30;4.45;;;4.05;;
21987;SDS011;11158;53.404;-1.510;2022-07-17T10:29:02;4.32;;;3.92;;
21987;SDS011;11158;53.404;-1.510;2022-07-17T10:31:32;4.25;;;3.78;;
21987;SDS011;11158;53.404;-1.510;2022-07-17T10:34:03;5.70;;;4.28;;
21987;SDS011;11158;53.404;-1.510;2022-07-17T10:36:41;4.10;;;3.70;;
21987;SDS011;11158;53.404;-1.510;2022-07-17T10:39:11;4.82;;;4.00;;
21987;SDS011;11158;53.404;-1.510;2022-07-17T10:41:39;5.05;;;4.50;;
21987;SDS011;11158;53.404;-1.510;2022-07-17T10:44:05;4.72;;;4.22;;
21987;SDS011;11158;53.404;-1.510;2022-07-17T10:46:31;6.20;;;4.30;;
21987;SDS011;11158;53.404;-1.510;2022-07-17T10:48:56;5.00;;;4.43;;
21987;SDS011;11158;53.404;-1.510;2022-07-17T10:51:27;5.28;;;4.10;;
21987;SDS011;11158;53.404;-1.510;2022-07-17T10:53:58;5.45;;;4.68;;
21987;SDS011;11158;53.404;-1.510;2022-07-17T10:56:24;4.95;;;4.45;;
21987;SDS011;11158;53.404;-1.510;2022-07-17T10:58:51;5.07;;;4.43;;
21987;SDS011;11158;53.404;-1.510;2022-07-17T11:01:21;6.75;;;4.43;;
21987;SDS011;11158;53.404;-1.510;2022-07-17T11:08:43;4.53;;;4.07;;
21987;SDS011;11158;53.404;-1.510;2022-07-17T11:11:17;6.05;;;3.97;;
21987;SDS011;11158;53.404;-1.510;2022-07-17T11:13:47;4.75;;;4.30;;
21987;SDS011;11158;53.404;-1.510;2022-07-17T11:16:29;4.68;;;4.18;;
21987;SDS011;11158;53.404;-1.510;2022-07-17T11:18:55;4.38;;;3.92;;
21987;SDS011;11158;53.404;-1.510;2022-07-17T11:21:22;4.75;;;4.28;;
21987;SDS011;11158;53.404;-1.510;2022-07-17T11:23:51;5.47;;;3.75;;
21987;SDS011;11158;53.404;-1.510;2022-07-17T11:28:49;5.15;;;3.88;;
21987;SDS011;11158;53.404;-1.510;2022-07-17T11:31:22;7.20;;;4.32;;
21987;SDS011;11158;53.404;-1.510;2022-07-17T11:33:54;7.93;;;4.15;;
21987;SDS011;11158;53.404;-1.510;2022-07-17T11:36:37;9.07;;;4.45;;
21987;SDS011;11158;53.404;-1.510;2022-07-17T11:41:49;5.88;;;4.25;;
21987;SDS011;11158;53.404;-1.510;2022-07-17T11:46:45;6.45;;;4.50;;
21987;SDS011;11158;53.404;-1.510;2022-07-17T11:52:09;5.28;;;4.75;;
21987;SDS011;11158;53.404;-1.510;2022-07-17T11:54:47;8.23;;;4.60;;
21987;SDS011;11158;53.404;-1.510;2022-07-17T11:57:14;4.57;;;4.00;;
21987;SDS011;11158;53.404;-1.510;2022-07-17T11:59:41;8.68;;;4.63;;
21987;SDS011;11158;53.404;-1.510;2022-07-17T12:02:12;7.47;;;4.22;;
21987;SDS011;11158;53.404;-1.510;2022-07-17T12:04:52;4.85;;;3.95;;
21987;SDS011;11158;53.404;-1.510;2022-07-17T12:07:20;6.38;;;4.07;;
21987;SDS011;11158;53.404;-1.510;2022-07-17T12:09:46;7.53;;;4.45;;
21987;SDS011;11158;53.404;-1.510;2022-07-17T12:14:56;8.38;;;6.70;;
21987;SDS011;11158;53.404;-1.510;2022-07-17T12:19:52;5.63;;;3.83;;
21987;SDS011;11158;53.404;-1.510;2022-07-17T12:22:18;4.75;;;4.30;;
21987;SDS011;11158;53.404;-1.510;2022-07-17T12:24:44;4.20;;;3.60;;
21987;SDS011;11158;53.404;-1.510;2022-07-17T12:27:12;5.50;;;3.90;;
21987;SDS011;11158;53.404;-1.510;2022-07-17T12:29:43;4.75;;;3.22;;
21987;SDS011;11158;53.404;-1.510;2022-07-17T12:32:10;4.10;;;3.65;;
21987;SDS011;11158;53.404;-1.510;2022-07-17T12:34:47;7.90;;;4.00;;
21987;SDS011;11158;53.404;-1.510;2022-07-17T12:37:18;7.20;;;3.75;;
21987;SDS011;11158;53.404;-1.510;2022-07-17T12:39:45;3.80;;;3.42;;
21987;SDS011;11158;53.404;-1.510;2022-07-17T12:42:13;6.88;;;3.30;;
21987;SDS011;11158;53.404;-1.510;2022-07-17T12:44:39;3.67;;;3.22;;
21987;SDS011;11158;53.404;-1.510;2022-07-17T12:47:07;3.40;;;3.10;;
21987;SDS011;11158;53.404;-1.510;2022-07-17T12:49:33;5.35;;;3.08;;
21987;SDS011;11158;53.404;-1.510;2022-07-17T12:51:59;3.25;;;2.95;;
21987;SDS011;11158;53.404;-1.510;2022-07-17T12:54:24;4.38;;;2.83;;
21987;SDS011;11158;53.404;-1.510;2022-07-17T12:56:50;4.50;;;3.13;;
21987;SDS011;11158;53.404;-1.510;2022-07-17T12:59:16;6.32;;;3.00;;
21987;SDS011;11158;53.404;-1.510;2022-07-17T13:01:42;3.92;;;3.20;;
21987;SDS011;11158;53.404;-1.510;2022-07-17T13:04:07;3.67;;;3.38;;
21987;SDS011;11158;53.404;-1.510;2022-07-17T13:06:33;3.20;;;2.67;;
21987;SDS011;11158;53.404;-1.510;2022-07-17T13:08:59;4.47;;;3.05;;
21987;SDS011;11158;53.404;-1.510;2022-07-17T13:11:25;3.80;;;3.05;;
21987;SDS011;11158;53.404;-1.510;2022-07-17T13:13:52;5.55;;;3.13;;
21987;SDS011;11158;53.404;-1.510;2022-07-17T13:16:18;3.13;;;2.70;;
21987;SDS011;11158;53.404;-1.510;2022-07-17T13:18:45;5.10;;;2.95;;
21987;SDS011;11158;53.404;-1.510;2022-07-17T13:21:11;4.05;;;2.65;;
21987;SDS011;11158;53.404;-1.510;2022-07-17T13:23:37;6.72;;;3.15;;
21987;SDS011;11158;53.404;-1.510;2022-07-17T13:26:03;5.53;;;3.53;;
21987;SDS011;11158;53.404;-1.510;2022-07-17T13:28:30;6.50;;;3.65;;
21987;SDS011;11158;53.404;-1.510;2022-07-17T13:30:56;4.00;;;3.53;;
21987;SDS011;11158;53.404;-1.510;2022-07-17T13:33:22;6.28;;;3.80;;
21987;SDS011;11158;53.404;-1.510;2022-07-17T13:35:48;5.28;;;3.75;;
21987;SDS011;11158;53.404;-1.510;2022-07-17T13:38:14;3.83;;;3.42;;
21987;SDS011;11158;53.404;-1.510;2022-07-17T13:40:40;7.38;;;4.28;;
21987;SDS011;11158;53.404;-1.510;2022-07-17T13:43:06;6.22;;;3.70;;
21987;SDS011;11158;53.404;-1.510;2022-07-17T13:45:33;5.82;;;3.63;;
21987;SDS011;11158;53.404;-1.510;2022-07-17T13:47:59;7.05;;;3.95;;
21987;SDS011;11158;53.404;-1.510;2022-07-17T13:50:25;5.25;;;3.70;;
21987;SDS011;11158;53.404;-1.510;2022-07-17T13:52:52;3.65;;;3.25;;
21987;SDS011;11158;53.404;-1.510;2022-07-17T13:55:18;5.25;;;4.18;;
21987;SDS011;11158;53.404;-1.510;2022-07-17T13:57:44;6.38;;;4.70;;
21987;SDS011;11158;53.404;-1.510;2022-07-17T14:00:10;6.47;;;3.63;;
21987;SDS011;11158;53.404;-1.510;2022-07-17T14:02:37;4.00;;;3.20;;
21987;SDS011;11158;53.404;-1.510;2022-07-17T14:05:03;4.50;;;3.70;;
21987;SDS011;11158;53.404;-1.510;2022-07-17T14:07:31;5.18;;;4.22;;
21987;SDS011;11158;53.404;-1.510;2022-07-17T14:09:57;6.95;;;4.13;;
21987;SDS011;11158;53.404;-1.510;2022-07-17T14:12:23;4.45;;;3.70;;
21987;SDS011;11158;53.404;-1.510;2022-07-17T14:14:48;4.63;;;3.40;;
21987;SDS011;11158;53.404;-1.510;2022-07-17T14:17:14;4.32;;;3.55;;
21987;SDS011;11158;53.404;-1.510;2022-07-17T14:19:46;4.20;;;3.80;;
21987;SDS011;11158;53.404;-1.510;2022-07-17T14:22:12;3.88;;;3.42;;
21987;SDS011;11158;53.404;-1.510;2022-07-17T14:24:38;4.70;;;3.42;;
21987;SDS011;11158;53.404;-1.510;2022-07-17T14:27:04;6.45;;;3.60;;
21987;SDS011;11158;53.404;-1.510;2022-07-17T14:29:30;7.72;;;3.55;;
21987;SDS011;11158;53.404;-1.510;2022-07-17T14:31:55;3.22;;;2.92;;
21987;SDS011;11158;53.404;-1.510;2022-07-17T14:34:22;6.22;;;3.75;;
21987;SDS011;11158;53.404;-1.510;2022-07-17T14:36:47;4.78;;;3.72;;
21987;SDS011;11158;53.404;-1.510;2022-07-17T14:39:14;4.07;;;3.67;;
21987;SDS011;11158;53.404;-1.510;2022-07-17T14:41:40;5.18;;;3.40;;
21987;SDS011;11158;53.404;-1.510;2022-07-17T14:44:05;3.50;;;3.15;;
21987;SDS011;11158;53.404;-1.510;2022-07-17T14:46:32;3.60;;;3.30;;
21987;SDS011;11158;53.404;-1.510;2022-07-17T14:48:58;4.18;;;3.10;;
21987;SDS011;11158;53.404;-1.510;2022-07-17T14:51:24;4.13;;;3.03;;